Conway, North Carolina
Current Conditions -  °F | °C
As of 10:55 AM on Friday 21 Nov 2014 (Local Time) from KASJ Reporting Station
Clear Clear  
Wind Chill: 35°   Ceiling: Unl
Heat Index: 40°   Visibility: 10mi
Dew Point: 15°   Wind: 8mph
Humidity: 36%   Direction: 350°N
Pressure: 30.45"   Gusts: NA
Location:  36.44°N, 77.23°W
Report Text: KASJ 211555Z AUTO 35007KT 10SM CLR 05/M09 A3045 RMK AO2 T00451094
Loading
Personal Weather Stations






























Interactive Weather Map New forecast layout! Learn more

10-Day Weather Forecast

Advertisements
Track Severe Weather on mobile